Strona główna
METAR-TAF:

METAR-TAF

Lotnisko :

Villacoublay, Francja

Szerokość geograficzna: 48-46N, Długość geograficzna: 002-12E, wysokość: 177 m

Aktualna obserwacja pogody

Raport powstał 35 minut temu, godzina 18:00 UTC
Wiatr 7 kt od północny zachód, zmienny między zachód i północ
Temperatura 26°C
Wilgotność 28%
Ciśnienie 1013 hPa
Widzialność 10 km lub więcej
Brak chmur poniżej 1500 m i brak chmur cumulonimbus

METAR: LFPV 171800Z AUTO 31007KT 280V360 CAVOK 26/06 Q1013 NOSIG

czas: 20:35 (18:35 UTC)

Prognoza

Raport powstał 4 godziny i 35 minut temu, godzina 14:00 UTC
Prognoza ważna od 17 godzina 15 UTC do 18 godzina 15 UTC
Wiatr 9 kt od północny zachód
Widzialność 10 km lub więcej
Brak chmur poniżej 1500 m i brak chmur cumulonimbus

TAF: LFPV 171400Z 1715/1815 32009KT CAVOK

Obserwacja i prognoza pogody dla ponad 4000 lotnisk (raport METAR i TAF).

Dostępne stacje oznaczono żółtymi i czerwonymi punktami na mapie.

Najedź kursorem aby zobaczyć nazwę stacji.

Kliknij aby zobaczyć obserwacje i prognozy pogody.

Aby zmienić mapę: kliknij na zielony przycisk z czarnym krzyżykiem, aby powiększyć; na zielony przycisk z myślnikiem, aby pomniejszyć; na zielone strzałki, aby przejść do map sąsiednich.


METAR-TAF: